createdAt,value
2023-01-19T00:00:39.099Z,8.24
2023-01-19T00:04:39.573Z,8.17
2023-01-19T00:07:39.103Z,8.07
2023-01-19T00:10:47.453Z,8.06
2023-01-19T00:14:39.372Z,7.99
2023-01-19T00:17:39.133Z,8.04
2023-01-19T00:22:45.777Z,8.02
2023-01-19T00:25:39.085Z,8.1
2023-01-19T00:27:39.106Z,8.14
2023-01-19T00:30:45.906Z,8.1
2023-01-19T00:33:39.081Z,7.95
2023-01-19T00:35:39.929Z,7.93
2023-01-19T00:38:40.005Z,7.99
2023-01-19T00:41:39.515Z,7.91
2023-01-19T00:44:39.091Z,7.94
2023-01-19T00:46:39.522Z,7.94
2023-01-19T00:49:39.056Z,7.94
2023-01-19T00:51:39.139Z,7.93
2023-01-19T00:54:39.077Z,7.91
2023-01-19T00:56:39.185Z,7.92
2023-01-19T00:59:39.034Z,7.92
2023-01-19T01:01:44.906Z,7.92
2023-01-19T01:04:39.102Z,7.77
2023-01-19T01:06:39.227Z,7.81
2023-01-19T01:09:39.765Z,7.92
2023-01-19T01:12:39.676Z,7.96
2023-01-19T01:15:39.052Z,8.02
2023-01-19T01:17:39.415Z,7.99
2023-01-19T01:20:39.054Z,7.97
2023-01-19T01:23:39.377Z,7.99
2023-01-19T01:26:39.079Z,7.91
2023-01-19T01:29:39.057Z,7.91
2023-01-19T01:32:39.263Z,7.89
2023-01-19T01:35:39.598Z,7.89
2023-01-19T01:38:39.208Z,7.95
2023-01-19T01:41:39.622Z,7.9
2023-01-19T01:43:39.831Z,7.96
2023-01-19T01:47:39.045Z,7.93
2023-01-19T01:49:39.054Z,7.89
2023-01-19T01:51:39.082Z,7.87
2023-01-19T01:53:39.129Z,7.86
2023-01-19T01:56:39.731Z,7.87
2023-01-19T01:59:39.772Z,7.93
2023-01-19T02:02:39.326Z,7.91
2023-01-19T02:05:39.331Z,7.89
2023-01-19T02:08:39.179Z,7.81
2023-01-19T02:11:39.061Z,7.81
2023-01-19T02:14:39.041Z,7.81
2023-01-19T02:16:39.106Z,7.84
2023-01-19T02:19:39.333Z,7.87
2023-01-19T02:22:39.062Z,7.88
2023-01-19T02:25:39.044Z,7.84
2023-01-19T02:27:39.052Z,7.84
2023-01-19T02:29:39.289Z,7.96
2023-01-19T02:33:39.189Z,8.12
2023-01-19T02:35:39.536Z,8.17
2023-01-19T02:38:39.049Z,8.07
2023-01-19T02:41:39.024Z,7.95
2023-01-19T02:43:39.035Z,7.96
2023-01-19T02:45:39.206Z,7.95
2023-01-19T02:47:39.334Z,7.96
2023-01-19T02:50:39.264Z,7.95
2023-01-19T02:53:39.070Z,7.92
2023-01-19T02:56:39.571Z,7.66
2023-01-19T02:59:39.031Z,7.42
2023-01-19T03:01:39.703Z,7.35
2023-01-19T03:03:39.817Z,7.37
2023-01-19T03:06:39.049Z,7.31
2023-01-19T03:08:39.118Z,7.43
2023-01-19T03:11:39.532Z,7.56
2023-01-19T03:14:39.438Z,7.63
2023-01-19T03:16:40.038Z,7.82
2023-01-19T03:20:46.275Z,8.04
2023-01-19T03:22:46.337Z,8.12
2023-01-19T03:25:39.737Z,8.21
2023-01-19T03:28:39.042Z,8.28
2023-01-19T03:30:39.103Z,8.27
2023-01-19T03:32:39.149Z,8.21
2023-01-19T03:34:39.299Z,8.18
2023-01-19T03:37:39.103Z,8.21
2023-01-19T03:40:39.021Z,8.21
2023-01-19T03:42:39.602Z,8.32
2023-01-19T03:44:39.884Z,8.24
2023-01-19T03:47:39.014Z,8.07
2023-01-19T03:51:39.013Z,8.02
2023-01-19T03:53:39.192Z,8.05
2023-01-19T03:56:45.631Z,8.14
2023-01-19T03:58:46.207Z,8.09
2023-01-19T04:01:39.668Z,8.12
2023-01-19T04:04:39.094Z,8.03
2023-01-19T04:06:45.662Z,8.04
2023-01-19T04:09:39.111Z,7.97
2023-01-19T04:12:39.170Z,7.95
2023-01-19T04:14:39.936Z,7.94
2023-01-19T04:17:39.100Z,7.89
2023-01-19T04:20:39.434Z,7.92
2023-01-19T04:22:39.915Z,7.98
2023-01-19T04:24:40.002Z,7.98
2023-01-19T04:28:39.043Z,7.91
2023-01-19T04:30:39.493Z,7.92
2023-01-19T04:33:39.062Z,8.04
2023-01-19T04:35:39.215Z,8.03
2023-01-19T04:40:38.717Z,7.93
2023-01-19T04:43:39.040Z,8.07
2023-01-19T04:45:45.634Z,8.02
2023-01-19T04:48:59.509Z,8.01
2023-01-19T04:51:45.656Z,7.96
2023-01-19T04:55:39.779Z,8.01
2023-01-19T04:59:39.032Z,7.96
2023-01-19T05:01:45.652Z,7.92
2023-01-19T05:04:39.026Z,7.77
2023-01-19T05:06:39.743Z,7.74
2023-01-19T05:10:39.021Z,7.75
2023-01-19T05:12:45.799Z,7.67
2023-01-19T05:15:44.785Z,7.51
2023-01-19T05:17:52.201Z,7.47
2023-01-19T05:20:45.623Z,7.43
2023-01-19T05:22:46.173Z,7.41
2023-01-19T05:25:53.713Z,7.35
2023-01-19T05:28:52.229Z,7.33
2023-01-19T05:31:44.793Z,7.28
2023-01-19T05:34:39.023Z,7.18
2023-01-19T05:36:39.055Z,7.16
2023-01-19T05:38:39.049Z,7.18
2023-01-19T05:40:52.683Z,7.2
2023-01-19T05:43:46.256Z,7.2
2023-01-19T05:46:45.630Z,7.15
2023-01-19T05:48:46.345Z,7.14
2023-01-19T05:51:52.566Z,7.11
2023-01-19T05:54:59.484Z,7.11
2023-01-19T05:57:46.335Z,7.1
2023-01-19T06:00:45.595Z,7.05
2023-01-19T06:03:39.049Z,7.02
2023-01-19T06:07:39.403Z,6.95
2023-01-19T06:09:45.598Z,6.91
2023-01-19T06:12:52.211Z,6.85
2023-01-19T06:14:52.515Z,6.82
2023-01-19T06:17:45.951Z,6.84
2023-01-19T06:20:45.999Z,6.85
2023-01-19T06:22:46.265Z,6.85
2023-01-19T06:25:45.801Z,6.82
2023-01-19T06:28:45.611Z,6.85
2023-01-19T06:30:45.667Z,6.82
2023-01-19T06:32:52.875Z,6.86
2023-01-19T06:35:45.750Z,6.93
2023-01-19T06:39:39.355Z,6.98
2023-01-19T06:41:39.581Z,6.99
2023-01-19T06:45:52.622Z,6.91
2023-01-19T06:48:46.362Z,6.95
2023-01-19T06:51:50.077Z,6.98
2023-01-19T06:54:46.072Z,6.91
2023-01-19T06:57:39.017Z,6.98
2023-01-19T06:59:52.690Z,7
2023-01-19T07:02:46.610Z,6.96
2023-01-19T07:05:39.635Z,6.98
2023-01-19T07:08:39.052Z,7.01
2023-01-19T07:11:22.507Z,7
2023-01-19T07:12:46.241Z,6.97
2023-01-19T07:16:39.093Z,6.96
2023-01-19T07:18:52.742Z,6.92
2023-01-19T07:21:45.701Z,6.95
2023-01-19T07:24:39.003Z,6.98
2023-01-19T07:26:39.317Z,7.02
2023-01-19T07:29:39.635Z,7.02
2023-01-19T07:32:45.627Z,6.98
2023-01-19T07:34:46.009Z,6.95
2023-01-19T07:37:39.013Z,6.89
2023-01-19T07:39:39.626Z,6.89
2023-01-19T07:41:39.952Z,6.93
2023-01-19T07:44:46.239Z,6.85
2023-01-19T07:47:39.697Z,6.85
2023-01-19T07:50:39.289Z,6.91
2023-01-19T07:53:39.520Z,6.89
2023-01-19T07:56:46.396Z,6.82
2023-01-19T08:00:52.506Z,6.9
2023-01-19T08:03:52.352Z,6.94
2023-01-19T08:06:39.108Z,6.97
2023-01-19T08:09:39.049Z,6.97
2023-01-19T08:12:39.363Z,7.01
2023-01-19T08:14:39.961Z,7.01
2023-01-19T08:17:39.173Z,7.01
2023-01-19T08:19:41.427Z,6.98
2023-01-19T08:22:39.830Z,7.02
2023-01-19T08:25:39.012Z,6.9
2023-01-19T08:27:39.132Z,6.87
2023-01-19T08:29:39.135Z,6.93
2023-01-19T08:32:45.604Z,6.93
2023-01-19T08:36:52.642Z,6.94
2023-01-19T08:39:45.596Z,6.89
2023-01-19T08:42:52.195Z,6.86
2023-01-19T08:45:45.584Z,6.88
2023-01-19T08:49:52.671Z,6.89
2023-01-19T08:52:45.842Z,6.89
2023-01-19T08:55:38.997Z,6.95
2023-01-19T08:59:39.877Z,7.01
2023-01-19T09:02:45.634Z,7.01
2023-01-19T09:04:46.061Z,7.07
2023-01-19T09:07:52.176Z,7.17
2023-01-19T09:10:45.758Z,7.17
2023-01-19T09:13:38.997Z,7.13
2023-01-19T09:15:39.794Z,7.13
2023-01-19T09:18:39.099Z,7.2
2023-01-19T09:21:39.048Z,7.24
2023-01-19T09:23:39.128Z,7.3
2023-01-19T09:25:45.607Z,7.31
2023-01-19T09:27:46.064Z,7.37
2023-01-19T09:30:39.677Z,7.49
2023-01-19T09:33:39.034Z,7.63
2023-01-19T09:36:53.177Z,7.7
2023-01-19T09:39:39.005Z,7.77
2023-01-19T09:41:39.150Z,7.89
2023-01-19T09:44:39.451Z,7.99
2023-01-19T09:47:39.032Z,8.08
2023-01-19T09:49:39.179Z,8.09
2023-01-19T09:52:39.512Z,8.09
2023-01-19T09:55:39.051Z,8.22
2023-01-19T09:58:39.034Z,8.31
2023-01-19T10:01:39.051Z,8.29
2023-01-19T10:04:39.162Z,8.39
2023-01-19T10:07:39.909Z,8.42
2023-01-19T10:10:39.760Z,8.47
2023-01-19T10:13:39.145Z,8.43
2023-01-19T10:15:39.432Z,8.39
2023-01-19T10:17:39.615Z,8.35
2023-01-19T10:20:39.201Z,8.38
2023-01-19T10:24:38.110Z,8.41
2023-01-19T10:26:45.949Z,8.45
2023-01-19T10:29:52.766Z,8.51
2023-01-19T10:32:45.599Z,8.62
2023-01-19T10:34:45.644Z,8.64
2023-01-19T10:36:58.785Z,8.74
2023-01-19T10:39:45.835Z,8.85
2023-01-19T10:43:39.057Z,9.02
2023-01-19T10:45:39.494Z,9.08
2023-01-19T10:47:39.901Z,9.01
2023-01-19T10:51:38.092Z,8.93
2023-01-19T10:53:45.673Z,9.02
2023-01-19T10:56:39.052Z,9.04
2023-01-19T10:59:39.044Z,9.14
2023-01-19T11:01:52.420Z,9.14
2023-01-19T11:04:39.535Z,9.16
2023-01-19T11:07:39.013Z,8.97
2023-01-19T11:09:39.039Z,8.91
2023-01-19T11:11:39.363Z,8.85
2023-01-19T11:13:46.302Z,8.89
2023-01-19T11:16:39.054Z,8.99
2023-01-19T11:18:39.140Z,9
2023-01-19T11:21:39.416Z,9.18
2023-01-19T11:25:45.745Z,8.96
2023-01-19T11:28:39.028Z,9.14
2023-01-19T11:30:39.040Z,9.29
2023-01-19T11:32:39.038Z,9.38
2023-01-19T11:35:39.017Z,9.37
2023-01-19T11:37:39.682Z,9.35
2023-01-19T11:41:45.620Z,9.43
2023-01-19T11:43:49.175Z,9.32
2023-01-19T11:46:47.965Z,9.08
2023-01-19T11:48:46.178Z,9.04
2023-01-19T11:52:41.228Z,9.02
2023-01-19T11:56:38.189Z,9.22
2023-01-19T11:58:45.590Z,9.27
2023-01-19T12:01:52.818Z,9.31
2023-01-19T12:04:46.130Z,9.56
2023-01-19T12:08:38.999Z,9.58
2023-01-19T12:10:39.035Z,9.47
2023-01-19T12:12:52.234Z,9.35
2023-01-19T12:16:39.369Z,9.35
2023-01-19T12:18:39.693Z,9.33
2023-01-19T12:23:45.619Z,9.27
2023-01-19T12:26:39.050Z,9.14
2023-01-19T12:28:39.605Z,9.22
2023-01-19T12:30:39.925Z,9.28
2023-01-19T12:33:39.412Z,9.28
2023-01-19T12:36:39.455Z,9.3
2023-01-19T12:41:46.472Z,9.47
2023-01-19T12:44:38.107Z,9.6
2023-01-19T12:46:52.843Z,9.64
2023-01-19T12:50:39.183Z,9.6
2023-01-19T12:52:39.188Z,9.54
2023-01-19T12:55:39.064Z,9.53
2023-01-19T12:58:11.457Z,9.58
2023-01-19T13:01:39.906Z,9.59
2023-01-19T13:04:39.023Z,9.62
2023-01-19T13:07:45.914Z,9.66
2023-01-19T13:10:39.186Z,9.66
2023-01-19T13:13:39.088Z,9.54
2023-01-19T13:15:39.938Z,9.51
2023-01-19T13:18:39.335Z,9.49
2023-01-19T13:21:39.075Z,9.43
2023-01-19T13:23:39.785Z,9.5
2023-01-19T13:26:39.201Z,9.52
2023-01-19T13:28:39.432Z,9.43
2023-01-19T13:30:39.574Z,9.47
2023-01-19T13:32:47.687Z,9.58
2023-01-19T13:36:40.038Z,9.74
2023-01-19T13:41:45.592Z,9.7
2023-01-19T13:43:45.644Z,9.64
2023-01-19T13:46:39.099Z,9.6
2023-01-19T13:48:39.040Z,9.6
2023-01-19T13:51:39.059Z,9.62
2023-01-19T13:53:39.598Z,9.64
2023-01-19T13:56:39.080Z,9.66
2023-01-19T13:58:39.276Z,9.59
2023-01-19T14:00:39.860Z,9.55
2023-01-19T14:03:39.043Z,9.55
2023-01-19T14:06:39.047Z,9.6
2023-01-19T14:08:39.053Z,9.66
2023-01-19T14:10:39.061Z,9.7
2023-01-19T14:13:39.832Z,9.83
2023-01-19T14:17:39.456Z,9.92
2023-01-19T14:20:39.303Z,9.93
2023-01-19T14:23:39.109Z,9.89
2023-01-19T14:25:52.175Z,9.85
2023-01-19T14:28:45.656Z,9.77
2023-01-19T14:30:52.935Z,9.81
2023-01-19T14:33:52.280Z,9.76
2023-01-19T14:36:39.264Z,9.75
2023-01-19T14:39:39.049Z,9.58
2023-01-19T14:43:39.018Z,9.6
2023-01-19T14:45:46.153Z,9.72
2023-01-19T14:49:39.499Z,10.03
2023-01-19T14:52:39.019Z,10.26
2023-01-19T14:54:44.677Z,10.43
2023-01-19T14:56:46.041Z,10.52
2023-01-19T14:58:46.493Z,10.62
2023-01-19T15:01:39.303Z,10.65
2023-01-19T15:03:45.034Z,10.59
2023-01-19T15:06:38.077Z,10.6
2023-01-19T15:08:46.046Z,10.56
2023-01-19T15:11:39.028Z,10.45
2023-01-19T15:14:39.014Z,10.36
2023-01-19T15:17:46.459Z,10.3
2023-01-19T15:20:45.838Z,10.24
2023-01-19T15:25:52.622Z,10.13
2023-01-19T15:28:52.202Z,10.14
2023-01-19T15:33:12.472Z,10.22
2023-01-19T15:35:45.604Z,10.17
2023-01-19T15:37:45.627Z,10.1
2023-01-19T15:39:46.132Z,10.04
2023-01-19T15:43:45.565Z,9.91
2023-01-19T15:45:45.677Z,9.81
2023-01-19T15:47:46.144Z,9.84
2023-01-19T15:51:52.549Z,9.72
2023-01-19T15:55:52.241Z,9.68
2023-01-19T15:58:52.761Z,9.68
2023-01-19T16:01:44.743Z,9.74
2023-01-19T16:04:39.636Z,9.77
2023-01-19T16:08:39.071Z,9.63
2023-01-19T16:12:13.650Z,9.64
2023-01-19T16:14:27.315Z,9.56
2023-01-19T16:17:11.845Z,9.66
2023-01-19T16:19:15.223Z,9.53
2023-01-19T16:21:18.638Z,9.55
2023-01-19T16:23:21.964Z,9.57
2023-01-19T16:25:25.378Z,9.56
2023-01-19T16:28:40.721Z,9.54
2023-01-19T16:30:54.487Z,9.53
2023-01-19T16:33:38.966Z,9.58
2023-01-19T16:35:43.308Z,9.6
2023-01-19T16:37:45.692Z,9.52
2023-01-19T16:39:49.184Z,9.59
2023-01-19T16:41:52.515Z,9.66
2023-01-19T16:44:47.296Z,9.6
2023-01-19T16:47:52.384Z,9.72
2023-01-19T16:50:16.357Z,9.7
2023-01-19T16:52:20.752Z,9.68
2023-01-19T16:54:53.050Z,9.68
2023-01-19T16:58:42.776Z,9.52
2023-01-19T17:01:42.867Z,9.52
2023-01-19T17:04:42.792Z,9.51
2023-01-19T17:06:53.047Z,9.5
2023-01-19T17:08:53.067Z,9.51
2023-01-19T17:12:42.803Z,9.49
2023-01-19T17:14:42.813Z,9.5
2023-01-19T17:16:53.151Z,9.51
2023-01-19T17:19:53.055Z,9.56
2023-01-19T17:23:42.783Z,9.53
2023-01-19T17:27:42.780Z,9.58
2023-01-19T17:29:42.774Z,9.57
2023-01-19T17:32:05.028Z,9.49
2023-01-19T17:34:53.085Z,9.46
2023-01-19T17:38:42.815Z,9.38
2023-01-19T17:41:53.021Z,9.38
2023-01-19T17:43:53.058Z,9.34
2023-01-19T17:46:53.077Z,9.28
2023-01-19T17:50:42.802Z,9.25
2023-01-19T17:52:42.826Z,9.24
2023-01-19T17:55:53.035Z,9.22
2023-01-19T17:57:54.114Z,9.2
2023-01-19T18:00:13.888Z,9.2
2023-01-19T18:02:53.171Z,9.18
2023-01-19T18:05:53.093Z,9.24
2023-01-19T18:08:42.872Z,9.29
2023-01-19T18:10:42.811Z,9.39
2023-01-19T18:13:53.054Z,9.42
2023-01-19T18:15:53.121Z,9.35
2023-01-19T18:18:42.797Z,9.31
2023-01-19T18:20:42.824Z,9.3
2023-01-19T18:22:42.790Z,9.18
2023-01-19T18:24:53.044Z,9.18
2023-01-19T18:26:55.559Z,9.14
2023-01-19T18:30:42.966Z,9.14
2023-01-19T18:34:42.770Z,9.12
2023-01-19T18:37:03.378Z,9.17
2023-01-19T18:39:53.052Z,9.25
2023-01-19T18:42:42.811Z,9.32
2023-01-19T18:45:05.130Z,9.3
2023-01-19T18:47:53.032Z,9.24
2023-01-19T18:51:03.391Z,9.16
2023-01-19T18:53:53.079Z,9.12
2023-01-19T18:56:42.936Z,9.05
2023-01-19T19:00:42.794Z,9.03
2023-01-19T19:03:42.804Z,9.03
2023-01-19T19:05:53.216Z,9.03
2023-01-19T19:08:42.806Z,9.01
2023-01-19T19:11:42.794Z,9.08
2023-01-19T19:14:53.072Z,9.22
2023-01-19T19:18:42.870Z,9.26
2023-01-19T19:22:42.807Z,9.28
2023-01-19T19:25:03.380Z,9.26
2023-01-19T19:27:03.357Z,9.22
2023-01-19T19:30:42.761Z,9.18
2023-01-19T19:32:42.800Z,9.17
2023-01-19T19:35:53.095Z,9.12
2023-01-19T19:38:42.852Z,9.1
2023-01-19T19:41:05.058Z,9.1
2023-01-19T19:43:53.024Z,9.14
2023-01-19T19:46:05.126Z,9.21
2023-01-19T19:48:53.052Z,9.27
2023-01-19T19:51:42.823Z,9.35
2023-01-19T19:54:42.803Z,9.41
2023-01-19T19:57:54.082Z,9.38
2023-01-19T20:00:53.095Z,9.29
2023-01-19T20:03:42.805Z,9.14
2023-01-19T20:06:42.788Z,9.1
2023-01-19T20:08:53.042Z,9.08
2023-01-19T20:10:53.043Z,9.05
2023-01-19T20:13:42.789Z,9.03
2023-01-19T20:16:42.782Z,8.97
2023-01-19T20:18:42.747Z,8.99
2023-01-19T20:20:42.827Z,8.99
2023-01-19T20:24:42.808Z,9.04
2023-01-19T20:28:42.789Z,9.06
2023-01-19T20:32:42.801Z,9.05
2023-01-19T20:34:53.046Z,9.02
2023-01-19T20:36:53.035Z,9.03
2023-01-19T20:39:42.815Z,9.03
2023-01-19T20:41:42.815Z,9.05
2023-01-19T20:43:53.057Z,9.02
2023-01-19T20:45:53.163Z,9.01
2023-01-19T20:48:42.834Z,8.97
2023-01-19T20:51:42.796Z,8.95
2023-01-19T20:53:53.075Z,8.95
2023-01-19T20:56:42.807Z,8.91
2023-01-19T20:59:42.758Z,8.93
2023-01-19T21:01:43.024Z,8.99
2023-01-19T21:04:53.070Z,9.14
2023-01-19T21:06:53.075Z,9.16
2023-01-19T21:09:42.766Z,9.24
2023-01-19T21:11:42.782Z,9.27
2023-01-19T21:14:42.815Z,9.26
2023-01-19T21:17:45.011Z,9.2
2023-01-19T21:20:42.787Z,9.17
2023-01-19T21:23:36.746Z,9.16
2023-01-19T21:26:42.767Z,9.14
2023-01-19T21:28:53.150Z,9.13
2023-01-19T21:31:53.092Z,9.13
2023-01-19T21:35:42.770Z,9.17
2023-01-19T21:38:53.070Z,9.18
2023-01-19T21:40:53.141Z,9.16
2023-01-19T21:43:42.773Z,9.22
2023-01-19T21:46:42.766Z,9.21
2023-01-19T21:48:53.248Z,9.21
2023-01-19T21:51:42.805Z,9.22
2023-01-19T21:55:42.819Z,9.18
2023-01-19T21:57:53.060Z,9.16
2023-01-19T21:59:53.055Z,9.1
2023-01-19T22:02:03.502Z,9.06
2023-01-19T22:04:53.057Z,9.03
2023-01-19T22:06:53.079Z,9.07
2023-01-19T22:10:14.671Z,9.13
2023-01-19T22:11:42.776Z,9.22
2023-01-19T22:13:42.792Z,9.32
2023-01-19T22:15:53.151Z,9.35
2023-01-19T22:18:42.783Z,9.35
2023-01-19T22:21:42.757Z,9.26
2023-01-19T22:24:42.780Z,9.22
2023-01-19T22:26:53.076Z,9.2
2023-01-19T22:29:42.754Z,9.16
2023-01-19T22:31:42.835Z,9.13
2023-01-19T22:33:42.809Z,9.1
2023-01-19T22:36:42.800Z,9.03
2023-01-19T22:39:42.793Z,9.01
2023-01-19T22:41:42.830Z,8.97
2023-01-19T22:44:42.865Z,9.03
2023-01-19T22:47:53.019Z,9.08
2023-01-19T22:49:53.033Z,9
2023-01-19T22:52:42.747Z,8.88
2023-01-19T22:54:42.777Z,8.92
2023-01-19T22:56:42.812Z,8.96
2023-01-19T22:58:53.007Z,8.97
2023-01-19T23:01:42.928Z,9
2023-01-19T23:04:42.788Z,8.99
2023-01-19T23:07:42.782Z,8.89
2023-01-19T23:09:53.027Z,8.89
2023-01-19T23:13:42.773Z,8.96
2023-01-19T23:16:42.820Z,9
2023-01-19T23:18:53.097Z,8.97
2023-01-19T23:22:03.336Z,8.95
2023-01-19T23:24:53.044Z,8.95
2023-01-19T23:28:03.420Z,8.97
2023-01-19T23:30:53.116Z,8.97
2023-01-19T23:33:42.787Z,8.91
2023-01-19T23:36:42.870Z,8.87
2023-01-19T23:39:53.067Z,8.81
2023-01-19T23:43:42.781Z,8.72
2023-01-19T23:46:05.044Z,8.67
2023-01-19T23:48:53.059Z,8.55
2023-01-19T23:51:42.760Z,8.52
2023-01-19T23:53:42.745Z,8.57
2023-01-19T23:55:42.853Z,8.58
2023-01-19T23:58:42.745Z,8.6
